sensor_id;sensor_type;location;lat;lon;timestamp;P1;durP1;ratioP1;P2;durP2;ratioP2
41261;SDS011;29629;52.532;13.352;2022-11-03T00:01:30;22.58;;;6.32;;
41261;SDS011;29629;52.532;13.352;2022-11-03T00:03:56;19.38;;;5.43;;
41261;SDS011;29629;52.532;13.352;2022-11-03T00:06:24;13.93;;;3.55;;
41261;SDS011;29629;52.532;13.352;2022-11-03T00:08:51;17.00;;;4.70;;
41261;SDS011;29629;52.532;13.352;2022-11-03T00:11:18;14.00;;;4.45;;
41261;SDS011;29629;52.532;13.352;2022-11-03T00:13:45;14.93;;;4.32;;
41261;SDS011;29629;52.532;13.352;2022-11-03T00:16:12;14.23;;;4.35;;
41261;SDS011;29629;52.532;13.352;2022-11-03T00:18:38;16.55;;;3.72;;
41261;SDS011;29629;52.532;13.352;2022-11-03T00:21:06;14.18;;;4.30;;
41261;SDS011;29629;52.532;13.352;2022-11-03T00:23:35;12.57;;;3.50;;
41261;SDS011;29629;52.532;13.352;2022-11-03T00:26:04;12.85;;;4.32;;
41261;SDS011;29629;52.532;13.352;2022-11-03T00:28:32;17.85;;;4.75;;
41261;SDS011;29629;52.532;13.352;2022-11-03T00:31:00;15.27;;;4.32;;
41261;SDS011;29629;52.532;13.352;2022-11-03T00:33:29;16.02;;;4.45;;
41261;SDS011;29629;52.532;13.352;2022-11-03T00:35:56;5.05;;;1.67;;
41261;SDS011;29629;52.532;13.352;2022-11-03T00:38:23;12.35;;;3.78;;
41261;SDS011;29629;52.532;13.352;2022-11-03T00:40:55;12.20;;;3.67;;
41261;SDS011;29629;52.532;13.352;2022-11-03T00:43:23;16.30;;;4.15;;
41261;SDS011;29629;52.532;13.352;2022-11-03T00:45:50;12.73;;;4.25;;
41261;SDS011;29629;52.532;13.352;2022-11-03T00:48:17;13.60;;;4.03;;
41261;SDS011;29629;52.532;13.352;2022-11-03T00:51:01;6.40;;;2.38;;
41261;SDS011;29629;52.532;13.352;2022-11-03T00:53:29;13.73;;;3.95;;
41261;SDS011;29629;52.532;13.352;2022-11-03T00:55:58;12.10;;;3.67;;
41261;SDS011;29629;52.532;13.352;2022-11-03T00:58:26;12.82;;;3.58;;
41261;SDS011;29629;52.532;13.352;2022-11-03T01:01:03;12.98;;;3.53;;
41261;SDS011;29629;52.532;13.352;2022-11-03T01:03:33;13.63;;;3.50;;
41261;SDS011;29629;52.532;13.352;2022-11-03T01:06:01;14.13;;;4.10;;
41261;SDS011;29629;52.532;13.352;2022-11-03T01:08:48;4.20;;;1.88;;
41261;SDS011;29629;52.532;13.352;2022-11-03T01:11:17;11.18;;;3.15;;
41261;SDS011;29629;52.532;13.352;2022-11-03T01:14:02;14.70;;;3.92;;
41261;SDS011;29629;52.532;13.352;2022-11-03T01:16:29;4.47;;;1.45;;
41261;SDS011;29629;52.532;13.352;2022-11-03T01:18:57;19.67;;;4.10;;
41261;SDS011;29629;52.532;13.352;2022-11-03T01:21:23;3.85;;;1.67;;
41261;SDS011;29629;52.532;13.352;2022-11-03T01:23:50;17.00;;;4.97;;
41261;SDS011;29629;52.532;13.352;2022-11-03T01:26:19;9.48;;;3.03;;
41261;SDS011;29629;52.532;13.352;2022-11-03T01:28:46;22.63;;;5.93;;
41261;SDS011;29629;52.532;13.352;2022-11-03T01:31:13;13.43;;;3.88;;
41261;SDS011;29629;52.532;13.352;2022-11-03T01:33:42;14.05;;;3.92;;
41261;SDS011;29629;52.532;13.352;2022-11-03T01:36:10;14.80;;;4.20;;
41261;SDS011;29629;52.532;13.352;2022-11-03T01:38:38;19.20;;;5.00;;
41261;SDS011;29629;52.532;13.352;2022-11-03T01:41:06;17.95;;;4.93;;
41261;SDS011;29629;52.532;13.352;2022-11-03T01:43:37;12.35;;;3.53;;
41261;SDS011;29629;52.532;13.352;2022-11-03T01:46:05;13.68;;;3.92;;
41261;SDS011;29629;52.532;13.352;2022-11-03T01:48:40;8.88;;;2.72;;
41261;SDS011;29629;52.532;13.352;2022-11-03T01:51:10;11.88;;;3.38;;
41261;SDS011;29629;52.532;13.352;2022-11-03T01:53:41;11.52;;;3.38;;
41261;SDS011;29629;52.532;13.352;2022-11-03T01:56:10;9.13;;;2.67;;
41261;SDS011;29629;52.532;13.352;2022-11-03T01:58:43;8.23;;;2.60;;
41261;SDS011;29629;52.532;13.352;2022-11-03T02:01:13;9.75;;;2.88;;
41261;SDS011;29629;52.532;13.352;2022-11-03T02:03:41;17.00;;;5.15;;
41261;SDS011;29629;52.532;13.352;2022-11-03T02:06:11;11.15;;;3.42;;
41261;SDS011;29629;52.532;13.352;2022-11-03T02:08:39;11.30;;;3.17;;
41261;SDS011;29629;52.532;13.352;2022-11-03T02:11:10;11.65;;;3.40;;
41261;SDS011;29629;52.532;13.352;2022-11-03T02:13:53;32.58;;;8.52;;
41261;SDS011;29629;52.532;13.352;2022-11-03T02:16:19;11.25;;;3.35;;
41261;SDS011;29629;52.532;13.352;2022-11-03T02:18:48;13.40;;;3.72;;
41261;SDS011;29629;52.532;13.352;2022-11-03T02:21:19;16.95;;;3.72;;
41261;SDS011;29629;52.532;13.352;2022-11-03T02:23:52;21.73;;;5.38;;
41261;SDS011;29629;52.532;13.352;2022-11-03T02:26:26;8.05;;;2.40;;
41261;SDS011;29629;52.532;13.352;2022-11-03T02:28:53;4.80;;;1.77;;
41261;SDS011;29629;52.532;13.352;2022-11-03T02:31:21;16.63;;;3.35;;
41261;SDS011;29629;52.532;13.352;2022-11-03T02:33:54;23.45;;;6.45;;
41261;SDS011;29629;52.532;13.352;2022-11-03T02:36:26;6.70;;;1.90;;
41261;SDS011;29629;52.532;13.352;2022-11-03T02:38:56;4.60;;;1.70;;
41261;SDS011;29629;52.532;13.352;2022-11-03T02:41:28;7.38;;;2.78;;
41261;SDS011;29629;52.532;13.352;2022-11-03T02:43:59;28.85;;;6.70;;
41261;SDS011;29629;52.532;13.352;2022-11-03T02:46:27;7.45;;;3.03;;
41261;SDS011;29629;52.532;13.352;2022-11-03T02:48:57;10.00;;;3.00;;
41261;SDS011;29629;52.532;13.352;2022-11-03T02:51:23;8.88;;;2.47;;
41261;SDS011;29629;52.532;13.352;2022-11-03T02:53:52;15.48;;;4.32;;
41261;SDS011;29629;52.532;13.352;2022-11-03T02:56:24;8.82;;;2.83;;
41261;SDS011;29629;52.532;13.352;2022-11-03T02:58:53;12.20;;;3.55;;
41261;SDS011;29629;52.532;13.352;2022-11-03T03:01:24;18.75;;;4.50;;
41261;SDS011;29629;52.532;13.352;2022-11-03T03:03:59;27.77;;;7.35;;
41261;SDS011;29629;52.532;13.352;2022-11-03T03:06:29;10.90;;;3.38;;
41261;SDS011;29629;52.532;13.352;2022-11-03T03:09:02;8.88;;;2.65;;
41261;SDS011;29629;52.532;13.352;2022-11-03T03:11:31;13.30;;;3.38;;
41261;SDS011;29629;52.532;13.352;2022-11-03T03:14:07;23.70;;;6.57;;
41261;SDS011;29629;52.532;13.352;2022-11-03T03:16:41;16.27;;;4.47;;
41261;SDS011;29629;52.532;13.352;2022-11-03T03:19:16;11.35;;;3.33;;
41261;SDS011;29629;52.532;13.352;2022-11-03T03:21:46;10.88;;;3.22;;
41261;SDS011;29629;52.532;13.352;2022-11-03T03:24:18;12.75;;;7.05;;
41261;SDS011;29629;52.532;13.352;2022-11-03T03:26:53;2.65;;;1.25;;
41261;SDS011;29629;52.532;13.352;2022-11-03T03:29:26;12.07;;;3.70;;
41261;SDS011;29629;52.532;13.352;2022-11-03T03:31:57;17.38;;;4.53;;
41261;SDS011;29629;52.532;13.352;2022-11-03T03:34:28;12.38;;;3.50;;
41261;SDS011;29629;52.532;13.352;2022-11-03T03:36:57;14.05;;;4.10;;
41261;SDS011;29629;52.532;13.352;2022-11-03T03:39:25;11.35;;;3.78;;
41261;SDS011;29629;52.532;13.352;2022-11-03T03:41:55;15.98;;;4.15;;
41261;SDS011;29629;52.532;13.352;2022-11-03T03:44:23;15.93;;;4.38;;
41261;SDS011;29629;52.532;13.352;2022-11-03T03:46:54;14.88;;;4.63;;
41261;SDS011;29629;52.532;13.352;2022-11-03T03:49:23;8.70;;;2.97;;
41261;SDS011;29629;52.532;13.352;2022-11-03T03:51:50;15.43;;;4.13;;
41261;SDS011;29629;52.532;13.352;2022-11-03T03:54:17;10.65;;;3.33;;
41261;SDS011;29629;52.532;13.352;2022-11-03T03:56:45;15.05;;;4.07;;
41261;SDS011;29629;52.532;13.352;2022-11-03T03:59:16;14.02;;;3.88;;
41261;SDS011;29629;52.532;13.352;2022-11-03T04:01:44;12.05;;;3.72;;
41261;SDS011;29629;52.532;13.352;2022-11-03T04:04:10;11.18;;;3.33;;
41261;SDS011;29629;52.532;13.352;2022-11-03T04:06:37;10.00;;;2.97;;
41261;SDS011;29629;52.532;13.352;2022-11-03T04:09:04;13.38;;;3.70;;
41261;SDS011;29629;52.532;13.352;2022-11-03T04:11:31;13.68;;;4.05;;
41261;SDS011;29629;52.532;13.352;2022-11-03T04:14:15;11.50;;;3.63;;
41261;SDS011;29629;52.532;13.352;2022-11-03T04:17:00;11.25;;;3.50;;
41261;SDS011;29629;52.532;13.352;2022-11-03T04:19:45;12.00;;;3.35;;
41261;SDS011;29629;52.532;13.352;2022-11-03T04:22:30;9.48;;;3.25;;
41261;SDS011;29629;52.532;13.352;2022-11-03T04:24:57;12.70;;;3.65;;
41261;SDS011;29629;52.532;13.352;2022-11-03T04:27:26;1.40;;;0.90;;
41261;SDS011;29629;52.532;13.352;2022-11-03T04:29:55;10.73;;;3.38;;
41261;SDS011;29629;52.532;13.352;2022-11-03T04:32:27;9.35;;;2.85;;
41261;SDS011;29629;52.532;13.352;2022-11-03T04:34:54;10.32;;;3.30;;
41261;SDS011;29629;52.532;13.352;2022-11-03T04:37:21;14.00;;;3.92;;
41261;SDS011;29629;52.532;13.352;2022-11-03T04:39:48;11.00;;;3.78;;
41261;SDS011;29629;52.532;13.352;2022-11-03T04:42:16;10.65;;;3.30;;
41261;SDS011;29629;52.532;13.352;2022-11-03T04:44:44;15.98;;;4.15;;
41261;SDS011;29629;52.532;13.352;2022-11-03T04:47:12;9.93;;;2.72;;
41261;SDS011;29629;52.532;13.352;2022-11-03T04:49:41;8.00;;;2.22;;
41261;SDS011;29629;52.532;13.352;2022-11-03T04:52:09;13.38;;;3.80;;
41261;SDS011;29629;52.532;13.352;2022-11-03T04:54:40;5.45;;;1.90;;
41261;SDS011;29629;52.532;13.352;2022-11-03T04:57:09;7.60;;;2.33;;
41261;SDS011;29629;52.532;13.352;2022-11-03T04:59:38;14.35;;;3.15;;
41261;SDS011;29629;52.532;13.352;2022-11-03T05:02:08;16.75;;;4.60;;
41261;SDS011;29629;52.532;13.352;2022-11-03T05:04:38;12.15;;;3.42;;
41261;SDS011;29629;52.532;13.352;2022-11-03T05:07:08;18.30;;;5.32;;
41261;SDS011;29629;52.532;13.352;2022-11-03T05:09:47;18.35;;;4.25;;
41261;SDS011;29629;52.532;13.352;2022-11-03T05:12:14;17.20;;;5.40;;
41261;SDS011;29629;52.532;13.352;2022-11-03T05:14:41;10.55;;;3.17;;
41261;SDS011;29629;52.532;13.352;2022-11-03T05:17:13;14.15;;;4.10;;
41261;SDS011;29629;52.532;13.352;2022-11-03T05:19:46;11.30;;;3.40;;
41261;SDS011;29629;52.532;13.352;2022-11-03T05:22:14;9.90;;;3.20;;
41261;SDS011;29629;52.532;13.352;2022-11-03T05:24:43;17.88;;;4.03;;
41261;SDS011;29629;52.532;13.352;2022-11-03T05:27:11;13.40;;;4.03;;
41261;SDS011;29629;52.532;13.352;2022-11-03T05:29:43;12.90;;;4.35;;
41261;SDS011;29629;52.532;13.352;2022-11-03T05:32:10;26.77;;;5.10;;
41261;SDS011;29629;52.532;13.352;2022-11-03T05:34:42;11.13;;;3.65;;
41261;SDS011;29629;52.532;13.352;2022-11-03T05:37:14;9.98;;;3.55;;
41261;SDS011;29629;52.532;13.352;2022-11-03T05:39:49;10.95;;;3.38;;
41261;SDS011;29629;52.532;13.352;2022-11-03T05:42:19;10.35;;;2.83;;
41261;SDS011;29629;52.532;13.352;2022-11-03T05:44:55;10.85;;;3.10;;
41261;SDS011;29629;52.532;13.352;2022-11-03T05:47:23;13.05;;;3.90;;
41261;SDS011;29629;52.532;13.352;2022-11-03T05:49:52;17.35;;;5.03;;
41261;SDS011;29629;52.532;13.352;2022-11-03T05:52:26;10.50;;;3.15;;
41261;SDS011;29629;52.532;13.352;2022-11-03T05:54:54;5.43;;;2.35;;
41261;SDS011;29629;52.532;13.352;2022-11-03T05:57:24;14.18;;;4.57;;
41261;SDS011;29629;52.532;13.352;2022-11-03T05:59:54;12.25;;;5.53;;
41261;SDS011;29629;52.532;13.352;2022-11-03T06:02:25;10.90;;;3.53;;
41261;SDS011;29629;52.532;13.352;2022-11-03T06:05:01;13.95;;;4.28;;
41261;SDS011;29629;52.532;13.352;2022-11-03T06:07:37;15.75;;;4.90;;
41261;SDS011;29629;52.532;13.352;2022-11-03T06:10:05;20.33;;;5.43;;
41261;SDS011;29629;52.532;13.352;2022-11-03T06:12:47;12.18;;;3.88;;
41261;SDS011;29629;52.532;13.352;2022-11-03T06:15:21;14.23;;;3.55;;
41261;SDS011;29629;52.532;13.352;2022-11-03T06:17:53;14.52;;;3.38;;
41261;SDS011;29629;52.532;13.352;2022-11-03T06:20:21;16.50;;;4.75;;
41261;SDS011;29629;52.532;13.352;2022-11-03T06:22:49;11.68;;;3.38;;
41261;SDS011;29629;52.532;13.352;2022-11-03T06:25:21;13.73;;;4.13;;
41261;SDS011;29629;52.532;13.352;2022-11-03T06:27:52;12.80;;;3.88;;
41261;SDS011;29629;52.532;13.352;2022-11-03T06:30:23;6.03;;;2.20;;
41261;SDS011;29629;52.532;13.352;2022-11-03T06:32:51;11.70;;;3.65;;
41261;SDS011;29629;52.532;13.352;2022-11-03T06:35:19;5.13;;;1.90;;
41261;SDS011;29629;52.532;13.352;2022-11-03T06:37:46;15.35;;;4.32;;
41261;SDS011;29629;52.532;13.352;2022-11-03T06:40:31;14.52;;;4.15;;
41261;SDS011;29629;52.532;13.352;2022-11-03T06:43:00;12.20;;;3.55;;
41261;SDS011;29629;52.532;13.352;2022-11-03T06:45:47;12.38;;;3.53;;
41261;SDS011;29629;52.532;13.352;2022-11-03T06:48:19;16.50;;;3.72;;
41261;SDS011;29629;52.532;13.352;2022-11-03T06:50:50;12.88;;;3.53;;
41261;SDS011;29629;52.532;13.352;2022-11-03T06:53:22;12.15;;;3.97;;
41261;SDS011;29629;52.532;13.352;2022-11-03T06:55:53;12.93;;;3.65;;
41261;SDS011;29629;52.532;13.352;2022-11-03T06:58:22;13.45;;;3.17;;
41261;SDS011;29629;52.532;13.352;2022-11-03T07:00:52;15.68;;;4.32;;
41261;SDS011;29629;52.532;13.352;2022-11-03T07:03:22;7.25;;;2.08;;
41261;SDS011;29629;52.532;13.352;2022-11-03T07:05:54;10.70;;;2.95;;
41261;SDS011;29629;52.532;13.352;2022-11-03T07:08:23;20.85;;;5.13;;
41261;SDS011;29629;52.532;13.352;2022-11-03T07:10:56;9.73;;;3.25;;
41261;SDS011;29629;52.532;13.352;2022-11-03T07:13:27;16.08;;;4.47;;
41261;SDS011;29629;52.532;13.352;2022-11-03T07:15:55;14.73;;;3.88;;
41261;SDS011;29629;52.532;13.352;2022-11-03T07:18:23;10.10;;;3.10;;
41261;SDS011;29629;52.532;13.352;2022-11-03T07:20:52;18.50;;;5.38;;
41261;SDS011;29629;52.532;13.352;2022-11-03T07:23:21;10.77;;;3.40;;
41261;SDS011;29629;52.532;13.352;2022-11-03T07:25:51;12.40;;;3.67;;
41261;SDS011;29629;52.532;13.352;2022-11-03T07:28:21;10.98;;;3.28;;
41261;SDS011;29629;52.532;13.352;2022-11-03T07:30:50;12.23;;;3.60;;
41261;SDS011;29629;52.532;13.352;2022-11-03T07:33:18;11.52;;;3.38;;
41261;SDS011;29629;52.532;13.352;2022-11-03T07:35:47;11.82;;;3.45;;
41261;SDS011;29629;52.532;13.352;2022-11-03T07:38:17;18.42;;;4.90;;
41261;SDS011;29629;52.532;13.352;2022-11-03T07:40:45;7.00;;;2.15;;
41261;SDS011;29629;52.532;13.352;2022-11-03T07:43:13;10.82;;;3.17;;
41261;SDS011;29629;52.532;13.352;2022-11-03T07:45:45;10.25;;;3.67;;
41261;SDS011;29629;52.532;13.352;2022-11-03T07:48:18;13.98;;;3.75;;
41261;SDS011;29629;52.532;13.352;2022-11-03T07:50:46;14.38;;;4.85;;
41261;SDS011;29629;52.532;13.352;2022-11-03T07:53:15;14.60;;;3.55;;
41261;SDS011;29629;52.532;13.352;2022-11-03T07:55:46;14.15;;;4.15;;
41261;SDS011;29629;52.532;13.352;2022-11-03T07:58:17;15.95;;;4.93;;
41261;SDS011;29629;52.532;13.352;2022-11-03T08:00:49;12.48;;;3.92;;
41261;SDS011;29629;52.532;13.352;2022-11-03T08:03:24;18.85;;;4.38;;
41261;SDS011;29629;52.532;13.352;2022-11-03T08:05:56;11.02;;;3.83;;
41261;SDS011;29629;52.532;13.352;2022-11-03T08:08:23;13.10;;;4.03;;
41261;SDS011;29629;52.532;13.352;2022-11-03T08:10:50;14.80;;;3.58;;
41261;SDS011;29629;52.532;13.352;2022-11-03T08:13:17;9.90;;;3.55;;
41261;SDS011;29629;52.532;13.352;2022-11-03T08:15:43;10.20;;;3.78;;
41261;SDS011;29629;52.532;13.352;2022-11-03T08:18:11;21.00;;;4.90;;
41261;SDS011;29629;52.532;13.352;2022-11-03T08:20:38;11.50;;;4.43;;
41261;SDS011;29629;52.532;13.352;2022-11-03T08:23:05;14.73;;;5.75;;
41261;SDS011;29629;52.532;13.352;2022-11-03T08:25:31;12.30;;;6.18;;
41261;SDS011;29629;52.532;13.352;2022-11-03T08:27:58;11.48;;;6.38;;
41261;SDS011;29629;52.532;13.352;2022-11-03T08:30:27;15.50;;;11.95;;
41261;SDS011;29629;52.532;13.352;2022-11-03T08:32:53;17.63;;;15.95;;
41261;SDS011;29629;52.532;13.352;2022-11-03T08:35:22;32.47;;;30.33;;
41261;SDS011;29629;52.532;13.352;2022-11-03T08:37:48;43.28;;;40.58;;
41261;SDS011;29629;52.532;13.352;2022-11-03T08:40:15;58.20;;;54.63;;
41261;SDS011;29629;52.532;13.352;2022-11-03T08:42:42;80.28;;;76.22;;
41261;SDS011;29629;52.532;13.352;2022-11-03T08:45:09;82.07;;;77.93;;
41261;SDS011;29629;52.532;13.352;2022-11-03T08:47:37;94.97;;;90.25;;
41261;SDS011;29629;52.532;13.352;2022-11-03T08:50:04;98.50;;;93.43;;
41261;SDS011;29629;52.532;13.352;2022-11-03T08:52:33;95.78;;;91.10;;
41261;SDS011;29629;52.532;13.352;2022-11-03T08:54:59;103.63;;;98.50;;
41261;SDS011;29629;52.532;13.352;2022-11-03T08:57:26;110.05;;;104.50;;
41261;SDS011;29629;52.532;13.352;2022-11-03T08:59:53;97.43;;;92.03;;
41261;SDS011;29629;52.532;13.352;2022-11-03T09:02:20;64.25;;;60.75;;
41261;SDS011;29629;52.532;13.352;2022-11-03T09:04:47;38.30;;;35.40;;
41261;SDS011;29629;52.532;13.352;2022-11-03T09:07:14;27.10;;;24.45;;
41261;SDS011;29629;52.532;13.352;2022-11-03T09:09:42;38.85;;;36.25;;
41261;SDS011;29629;52.532;13.352;2022-11-03T09:12:08;43.63;;;40.63;;
41261;SDS011;29629;52.532;13.352;2022-11-03T09:14:35;47.22;;;44.20;;
41261;SDS011;29629;52.532;13.352;2022-11-03T09:17:02;39.50;;;37.28;;
41261;SDS011;29629;52.532;13.352;2022-11-03T09:19:29;26.77;;;24.52;;
41261;SDS011;29629;52.532;13.352;2022-11-03T09:21:55;14.88;;;13.45;;
41261;SDS011;29629;52.532;13.352;2022-11-03T09:24:23;31.55;;;29.80;;
41261;SDS011;29629;52.532;13.352;2022-11-03T09:26:51;23.85;;;21.85;;
41261;SDS011;29629;52.532;13.352;2022-11-03T09:29:18;78.75;;;74.22;;
41261;SDS011;29629;52.532;13.352;2022-11-03T09:31:45;98.85;;;93.55;;
41261;SDS011;29629;52.532;13.352;2022-11-03T09:34:13;120.45;;;114.57;;
41261;SDS011;29629;52.532;13.352;2022-11-03T09:36:40;100.55;;;95.47;;
41261;SDS011;29629;52.532;13.352;2022-11-03T09:39:06;86.05;;;81.57;;
41261;SDS011;29629;52.532;13.352;2022-11-03T09:41:33;67.60;;;64.10;;
41261;SDS011;29629;52.532;13.352;2022-11-03T09:44:02;57.42;;;52.97;;
41261;SDS011;29629;52.532;13.352;2022-11-03T09:46:29;47.60;;;44.42;;
41261;SDS011;29629;52.532;13.352;2022-11-03T09:48:56;34.75;;;32.40;;
41261;SDS011;29629;52.532;13.352;2022-11-03T09:51:24;22.75;;;20.77;;
41261;SDS011;29629;52.532;13.352;2022-11-03T09:53:52;31.58;;;17.90;;
41261;SDS011;29629;52.532;13.352;2022-11-03T09:56:23;14.40;;;12.05;;
41261;SDS011;29629;52.532;13.352;2022-11-03T09:58:51;13.27;;;7.47;;
41261;SDS011;29629;52.532;13.352;2022-11-03T10:01:19;15.90;;;9.70;;
41261;SDS011;29629;52.532;13.352;2022-11-03T10:03:46;21.08;;;11.63;;
41261;SDS011;29629;52.532;13.352;2022-11-03T10:06:12;15.20;;;9.82;;
41261;SDS011;29629;52.532;13.352;2022-11-03T10:08:41;14.82;;;9.80;;
41261;SDS011;29629;52.532;13.352;2022-11-03T10:11:10;13.35;;;9.55;;
41261;SDS011;29629;52.532;13.352;2022-11-03T10:13:40;12.93;;;11.20;;
41261;SDS011;29629;52.532;13.352;2022-11-03T10:16:14;14.60;;;10.15;;
41261;SDS011;29629;52.532;13.352;2022-11-03T10:18:43;15.00;;;11.77;;
41261;SDS011;29629;52.532;13.352;2022-11-03T10:21:13;19.23;;;12.68;;
41261;SDS011;29629;52.532;13.352;2022-11-03T10:23:42;14.38;;;10.98;;
41261;SDS011;29629;52.532;13.352;2022-11-03T10:26:10;15.90;;;13.90;;
41261;SDS011;29629;52.532;13.352;2022-11-03T10:28:38;17.38;;;16.00;;
41261;SDS011;29629;52.532;13.352;2022-11-03T10:31:05;19.65;;;17.58;;
41261;SDS011;29629;52.532;13.352;2022-11-03T10:33:51;17.75;;;15.43;;
41261;SDS011;29629;52.532;13.352;2022-11-03T10:36:23;22.98;;;20.35;;
41261;SDS011;29629;52.532;13.352;2022-11-03T10:38:51;18.02;;;16.20;;
41261;SDS011;29629;52.532;13.352;2022-11-03T10:41:19;19.40;;;17.42;;
41261;SDS011;29629;52.532;13.352;2022-11-03T10:44:01;17.15;;;14.70;;
41261;SDS011;29629;52.532;13.352;2022-11-03T10:46:29;19.48;;;17.75;;
41261;SDS011;29629;52.532;13.352;2022-11-03T10:49:02;18.98;;;17.05;;
41261;SDS011;29629;52.532;13.352;2022-11-03T10:51:30;20.38;;;17.98;;
41261;SDS011;29629;52.532;13.352;2022-11-03T10:53:58;20.05;;;16.40;;
41261;SDS011;29629;52.532;13.352;2022-11-03T10:56:26;17.98;;;16.25;;
41261;SDS011;29629;52.532;13.352;2022-11-03T10:58:53;19.67;;;18.10;;
41261;SDS011;29629;52.532;13.352;2022-11-03T11:01:20;19.23;;;17.45;;
41261;SDS011;29629;52.532;13.352;2022-11-03T11:03:47;18.35;;;16.50;;
41261;SDS011;29629;52.532;13.352;2022-11-03T11:06:19;21.45;;;19.23;;
41261;SDS011;29629;52.532;13.352;2022-11-03T11:08:48;19.30;;;12.00;;
41261;SDS011;29629;52.532;13.352;2022-11-03T11:11:18;18.67;;;15.63;;
41261;SDS011;29629;52.532;13.352;2022-11-03T11:14:18;19.95;;;15.10;;
41261;SDS011;29629;52.532;13.352;2022-11-03T11:17:00;21.33;;;18.02;;
41261;SDS011;29629;52.532;13.352;2022-11-03T11:19:28;18.25;;;16.30;;
41261;SDS011;29629;52.532;13.352;2022-11-03T11:21:59;19.17;;;17.25;;
41261;SDS011;29629;52.532;13.352;2022-11-03T11:40:00;10.88;;;6.93;;
41261;SDS011;29629;52.532;13.352;2022-11-03T11:42:28;14.30;;;7.60;;
41261;SDS011;29629;52.532;13.352;2022-11-03T11:44:59;9.32;;;8.40;;
41261;SDS011;29629;52.532;13.352;2022-11-03T11:47:30;12.93;;;10.88;;
41261;SDS011;29629;52.532;13.352;2022-11-03T11:50:27;14.95;;;10.15;;
41261;SDS011;29629;52.532;13.352;2022-11-03T11:52:56;10.55;;;8.88;;
41261;SDS011;29629;52.532;13.352;2022-11-03T11:55:33;15.07;;;10.43;;
41261;SDS011;29629;52.532;13.352;2022-11-03T11:58:11;10.27;;;6.72;;
41261;SDS011;29629;52.532;13.352;2022-11-03T12:03:30;11.32;;;6.03;;
41261;SDS011;29629;52.532;13.352;2022-11-03T12:06:04;12.95;;;6.45;;
41261;SDS011;29629;52.532;13.352;2022-11-03T12:08:32;10.60;;;6.57;;
41261;SDS011;29629;52.532;13.352;2022-11-03T12:11:00;9.80;;;6.25;;
41261;SDS011;29629;52.532;13.352;2022-11-03T12:13:44;13.75;;;7.22;;
41261;SDS011;29629;52.532;13.352;2022-11-03T12:16:28;15.93;;;7.13;;
41261;SDS011;29629;52.532;13.352;2022-11-03T12:18:56;5.05;;;4.35;;
41261;SDS011;29629;52.532;13.352;2022-11-03T12:21:51;18.23;;;10.45;;
41261;SDS011;29629;52.532;13.352;2022-11-03T12:24:26;19.23;;;8.15;;
41261;SDS011;29629;52.532;13.352;2022-11-03T12:30:11;25.45;;;11.85;;
41261;SDS011;29629;52.532;13.352;2022-11-03T12:32:39;17.35;;;10.00;;
41261;SDS011;29629;52.532;13.352;2022-11-03T12:35:07;20.25;;;10.68;;
41261;SDS011;29629;52.532;13.352;2022-11-03T12:37:36;19.00;;;9.57;;
41261;SDS011;29629;52.532;13.352;2022-11-03T12:40:03;15.80;;;8.57;;
41261;SDS011;29629;52.532;13.352;2022-11-03T12:42:31;19.05;;;9.38;;
41261;SDS011;29629;52.532;13.352;2022-11-03T12:44:59;24.50;;;9.43;;
41261;SDS011;29629;52.532;13.352;2022-11-03T12:47:25;20.80;;;8.60;;
41261;SDS011;29629;52.532;13.352;2022-11-03T12:49:52;21.73;;;9.80;;
41261;SDS011;29629;52.532;13.352;2022-11-03T12:52:19;14.05;;;8.13;;
41261;SDS011;29629;52.532;13.352;2022-11-03T12:54:47;16.88;;;8.18;;
41261;SDS011;29629;52.532;13.352;2022-11-03T12:57:14;17.67;;;8.93;;
41261;SDS011;29629;52.532;13.352;2022-11-03T12:59:41;17.08;;;7.22;;
41261;SDS011;29629;52.532;13.352;2022-11-03T13:02:08;8.52;;;6.00;;
41261;SDS011;29629;52.532;13.352;2022-11-03T13:04:36;12.57;;;6.68;;
41261;SDS011;29629;52.532;13.352;2022-11-03T13:07:02;14.95;;;7.60;;
41261;SDS011;29629;52.532;13.352;2022-11-03T13:09:29;16.25;;;7.28;;
41261;SDS011;29629;52.532;13.352;2022-11-03T13:11:57;20.48;;;9.27;;
41261;SDS011;29629;52.532;13.352;2022-11-03T13:14:41;16.03;;;6.40;;
41261;SDS011;29629;52.532;13.352;2022-11-03T13:17:08;16.60;;;6.80;;
41261;SDS011;29629;52.532;13.352;2022-11-03T13:19:35;24.15;;;8.52;;
41261;SDS011;29629;52.532;13.352;2022-11-03T13:22:02;14.02;;;7.47;;
41261;SDS011;29629;52.532;13.352;2022-11-03T13:24:28;16.75;;;8.48;;
41261;SDS011;29629;52.532;13.352;2022-11-03T13:26:55;14.63;;;7.18;;
41261;SDS011;29629;52.532;13.352;2022-11-03T13:29:23;19.02;;;8.65;;
41261;SDS011;29629;52.532;13.352;2022-11-03T13:31:50;16.38;;;9.18;;
41261;SDS011;29629;52.532;13.352;2022-11-03T13:34:16;25.70;;;11.30;;
41261;SDS011;29629;52.532;13.352;2022-11-03T13:36:43;19.92;;;10.63;;
41261;SDS011;29629;52.532;13.352;2022-11-03T13:39:10;16.35;;;9.70;;
41261;SDS011;29629;52.532;13.352;2022-11-03T13:41:37;14.30;;;10.70;;
41261;SDS011;29629;52.532;13.352;2022-11-03T13:44:04;24.30;;;11.27;;
41261;SDS011;29629;52.532;13.352;2022-11-03T13:46:34;23.17;;;11.38;;
41261;SDS011;29629;52.532;13.352;2022-11-03T13:49:00;16.77;;;10.63;;
41261;SDS011;29629;52.532;13.352;2022-11-03T13:51:27;19.23;;;12.32;;
41261;SDS011;29629;52.532;13.352;2022-11-03T13:53:54;33.72;;;14.27;;
41261;SDS011;29629;52.532;13.352;2022-11-03T13:56:21;22.58;;;9.98;;
41261;SDS011;29629;52.532;13.352;2022-11-03T13:58:48;23.58;;;11.38;;
41261;SDS011;29629;52.532;13.352;2022-11-03T14:01:15;11.52;;;8.65;;
41261;SDS011;29629;52.532;13.352;2022-11-03T14:03:43;19.20;;;10.38;;
41261;SDS011;29629;52.532;13.352;2022-11-03T14:06:10;19.65;;;10.25;;
41261;SDS011;29629;52.532;13.352;2022-11-03T14:08:36;16.35;;;9.52;;
41261;SDS011;29629;52.532;13.352;2022-11-03T14:11:03;20.45;;;11.55;;
41261;SDS011;29629;52.532;13.352;2022-11-03T14:13:44;21.42;;;12.38;;
41261;SDS011;29629;52.532;13.352;2022-11-03T14:16:11;10.70;;;9.25;;
41261;SDS011;29629;52.532;13.352;2022-11-03T14:18:37;14.75;;;8.85;;
41261;SDS011;29629;52.532;13.352;2022-11-03T14:21:05;17.98;;;10.80;;
41261;SDS011;29629;52.532;13.352;2022-11-03T14:23:32;18.45;;;9.43;;
41261;SDS011;29629;52.532;13.352;2022-11-03T14:25:59;14.85;;;10.25;;
41261;SDS011;29629;52.532;13.352;2022-11-03T14:28:26;31.27;;;11.48;;
41261;SDS011;29629;52.532;13.352;2022-11-03T14:30:52;18.48;;;9.52;;
41261;SDS011;29629;52.532;13.352;2022-11-03T14:33:23;19.73;;;10.88;;
41261;SDS011;29629;52.532;13.352;2022-11-03T14:35:50;12.90;;;8.70;;
41261;SDS011;29629;52.532;13.352;2022-11-03T14:38:18;17.08;;;10.35;;
41261;SDS011;29629;52.532;13.352;2022-11-03T14:40:45;18.30;;;8.18;;
41261;SDS011;29629;52.532;13.352;2022-11-03T14:43:29;20.65;;;9.27;;
41261;SDS011;29629;52.532;13.352;2022-11-03T14:45:56;14.02;;;8.18;;
41261;SDS011;29629;52.532;13.352;2022-11-03T14:48:22;21.63;;;9.35;;
41261;SDS011;29629;52.532;13.352;2022-11-03T14:50:49;13.93;;;8.27;;
41261;SDS011;29629;52.532;13.352;2022-11-03T14:53:18;19.65;;;8.60;;
41261;SDS011;29629;52.532;13.352;2022-11-03T14:55:45;16.98;;;9.30;;